Time;durP1;ratioP1;P1;durP2;ratioP2;P2;SDS_P1;SDS_P2;PMS_P1;PMS_P2;Temp;Humidity;BMP_temperature;BMP_pressure;BME280_temperature;BME280_humidity;BME280_pressure;Samples;Min_cycle;Max_cycle;Signal;HPM_P1;HPM_P2
2021/12/29 00:01:47;;;;;;;35.70;20.38;;;;;;;;;;5057234;28;20045;-50
2021/12/29 00:04:13;;;;;;;38.63;21.13;;;;;;;;;;5058062;28;20504;-54
2021/12/29 00:06:39;;;;;;;31.25;18.88;;;;;;;;;;5050375;28;20029;-54
2021/12/29 00:09:05;;;;;;;33.20;19.42;;;;;;;;;;5061465;28;20045;-52
2021/12/29 00:11:31;;;;;;;38.78;22.00;;;;;;;;;;5053748;28;20770;-51
2021/12/29 00:13:58;;;;;;;39.38;21.27;;;;;;;;;;5057199;28;20029;-54
2021/12/29 00:16:24;;;;;;;37.05;20.88;;;;;;;;;;5057802;28;20067;-51
2021/12/29 00:18:50;;;;;;;39.63;21.77;;;;;;;;;;5052399;28;20037;-52
2021/12/29 00:21:16;;;;;;;37.28;21.77;;;;;;;;;;5061952;28;20045;-54
2021/12/29 00:23:41;;;;;;;37.58;21.08;;;;;;;;;;5053384;28;20061;-54
2021/12/29 00:26:11;;;;;;;30.38;19.08;;;;;;;;;;5055343;28;20131;-55
2021/12/29 00:28:36;;;;;;;34.30;19.40;;;;;;;;;;5056398;28;20576;-53
2021/12/29 00:31:02;;;;;;;31.52;20.38;;;;;;;;;;5056680;28;20072;-53
2021/12/29 00:33:28;;;;;;;31.50;19.23;;;;;;;;;;5057612;28;20041;-53
2021/12/29 00:35:53;;;;;;;33.45;20.52;;;;;;;;;;5054349;28;20090;-52
2021/12/29 00:38:19;;;;;;;33.97;19.70;;;;;;;;;;5056504;28;20064;-52
2021/12/29 00:40:45;;;;;;;31.35;18.20;;;;;;;;;;5057045;28;20124;-51
2021/12/29 00:43:11;;;;;;;29.65;18.25;;;;;;;;;;5051194;28;20038;-55
2021/12/29 00:45:38;;;;;;;26.65;17.42;;;;;;;;;;5058493;28;20577;-53
2021/12/29 00:48:06;;;;;;;30.50;18.58;;;;;;;;;;5052905;28;20037;-52
2021/12/29 00:50:33;;;;;;;37.60;19.27;;;;;;;;;;5052169;28;20028;-54
2021/12/29 00:52:59;;;;;;;29.05;18.58;;;;;;;;;;5055425;28;20036;-53
2021/12/29 00:55:25;;;;;;;29.75;18.92;;;;;;;;;;5048984;28;20033;-56
2021/12/29 00:57:51;;;;;;;27.67;18.88;;;;;;;;;;5059198;28;20041;-50
2021/12/29 01:00:19;;;;;;;27.40;17.50;;;;;;;;;;5054404;28;20041;-52
2021/12/29 01:02:45;;;;;;;28.55;18.38;;;;;;;;;;5058016;28;20039;-53
2021/12/29 01:05:11;;;;;;;32.13;18.60;;;;;;;;;;5056345;28;20037;-53
2021/12/29 01:07:37;;;;;;;28.83;18.15;;;;;;;;;;5049294;28;20037;-55
2021/12/29 01:10:04;;;;;;;28.77;18.52;;;;;;;;;;5059548;28;20040;-54
2021/12/29 01:12:30;;;;;;;31.80;18.23;;;;;;;;;;5051802;28;20427;-47
2021/12/29 01:14:58;;;;;;;29.70;19.08;;;;;;;;;;5056875;28;20139;-51
2021/12/29 01:17:24;;;;;;;27.70;18.02;;;;;;;;;;5055451;28;20044;-54
2021/12/29 01:19:53;;;;;;;28.80;19.27;;;;;;;;;;5050773;28;20820;-51
2021/12/29 01:22:20;;;;;;;26.92;17.50;;;;;;;;;;5059205;28;20065;-50
2021/12/29 01:24:46;;;;;;;32.42;19.63;;;;;;;;;;5051447;28;20029;-55
2021/12/29 01:27:13;;;;;;;28.52;17.83;;;;;;;;;;5056567;28;20075;-52
2021/12/29 01:29:39;;;;;;;31.27;18.58;;;;;;;;;;5053053;28;20029;-51
2021/12/29 01:32:05;;;;;;;25.85;17.92;;;;;;;;;;5052296;28;20064;-54
2021/12/29 01:34:31;;;;;;;27.05;17.13;;;;;;;;;;5058344;28;20043;-53
2021/12/29 01:36:56;;;;;;;30.08;18.63;;;;;;;;;;5051911;28;20735;-54
2021/12/29 01:39:23;;;;;;;26.27;17.80;;;;;;;;;;5058059;28;20046;-52
2021/12/29 01:41:51;;;;;;;24.80;16.95;;;;;;;;;;5053861;28;20403;-54
2021/12/29 01:44:18;;;;;;;27.17;17.10;;;;;;;;;;5053225;28;20032;-56
2021/12/29 01:46:45;;;;;;;27.85;16.50;;;;;;;;;;5055477;28;20025;-52
2021/12/29 01:49:11;;;;;;;27.45;16.98;;;;;;;;;;5049052;28;20094;-53
2021/12/29 01:51:47;;;;;;;24.65;16.35;;;;;;;;;;5058569;28;20609;-54
2021/12/29 01:54:23;;;;;;;28.00;17.90;;;;;;;;;;5053818;28;20048;-55
2021/12/29 01:56:50;;;;;;;23.05;15.82;;;;;;;;;;5055535;28;20029;-51
2021/12/29 01:59:15;;;;;;;26.75;16.50;;;;;;;;;;5056608;28;20059;-51
2021/12/29 02:01:42;;;;;;;23.33;15.57;;;;;;;;;;5049635;28;20041;-54
2021/12/29 02:04:08;;;;;;;27.90;16.25;;;;;;;;;;5054088;28;20047;-51
2021/12/29 02:06:34;;;;;;;24.50;15.55;;;;;;;;;;5051880;28;20037;-55
2021/12/29 02:09:00;;;;;;;28.02;16.95;;;;;;;;;;5053401;28;20041;-54
2021/12/29 02:11:30;;;;;;;26.52;17.02;;;;;;;;;;5054354;28;20510;-55
2021/12/29 02:13:58;;;;;;;26.83;16.83;;;;;;;;;;5051803;28;20043;-53
2021/12/29 02:16:24;;;;;;;24.30;16.98;;;;;;;;;;5055330;28;20181;-53
2021/12/29 02:19:02;;;;;;;27.38;16.60;;;;;;;;;;5051738;28;20772;-53
2021/12/29 02:21:31;;;;;;;26.15;16.65;;;;;;;;;;5055835;28;20070;-56
2021/12/29 02:26:28;;;;;;;24.60;16.13;;;;;;;;;;5049286;28;20476;-52
2021/12/29 02:28:55;;;;;;;26.05;17.38;;;;;;;;;;5057513;28;20054;-53
2021/12/29 02:31:22;;;;;;;27.33;17.42;;;;;;;;;;5051084;28;20060;-56
2021/12/29 02:33:47;;;;;;;22.58;15.00;;;;;;;;;;5054104;28;20392;-55
2021/12/29 02:36:16;;;;;;;26.77;18.05;;;;;;;;;;5054345;28;20077;-52
2021/12/29 02:38:47;;;;;;;25.17;16.15;;;;;;;;;;5047055;28;20041;-55
2021/12/29 02:41:13;;;;;;;25.77;16.60;;;;;;;;;;5056865;28;20043;-52
2021/12/29 02:43:40;;;;;;;26.33;16.88;;;;;;;;;;5050006;28;20041;-54
2021/12/29 02:46:11;;;;;;;25.20;16.88;;;;;;;;;;5054719;28;20128;-53
2021/12/29 02:48:41;;;;;;;24.25;15.93;;;;;;;;;;5052718;28;20067;-55
2021/12/29 02:51:08;;;;;;;24.30;15.82;;;;;;;;;;5054612;28;20036;-51
2021/12/29 02:53:35;;;;;;;28.55;17.42;;;;;;;;;;5056176;28;20457;-50
2021/12/29 02:56:02;;;;;;;28.45;16.83;;;;;;;;;;5048720;28;20455;-53
2021/12/29 02:58:28;;;;;;;30.88;17.08;;;;;;;;;;5056712;28;20051;-53
2021/12/29 03:00:56;;;;;;;27.52;15.70;;;;;;;;;;5052431;28;20492;-55
2021/12/29 03:03:24;;;;;;;26.55;15.75;;;;;;;;;;5052658;28;20040;-53
2021/12/29 03:05:51;;;;;;;28.35;17.55;;;;;;;;;;5054208;28;20037;-56
2021/12/29 03:08:18;;;;;;;30.00;17.35;;;;;;;;;;5049132;28;20041;-55
2021/12/29 03:10:45;;;;;;;24.23;16.55;;;;;;;;;;5056635;28;20041;-51
2021/12/29 03:13:11;;;;;;;28.88;16.58;;;;;;;;;;5052565;28;20033;-56
2021/12/29 03:15:37;;;;;;;24.20;15.93;;;;;;;;;;5053363;28;20078;-56
2021/12/29 03:18:03;;;;;;;38.55;18.73;;;;;;;;;;5057456;28;20119;-52
2021/12/29 03:20:30;;;;;;;30.60;16.25;;;;;;;;;;5048809;28;20037;-53
2021/12/29 03:22:56;;;;;;;19.40;15.50;;;;;;;;;;5059323;28;20089;-57
2021/12/29 03:25:22;;;;;;;19.63;13.60;;;;;;;;;;5051589;28;20049;-52
2021/12/29 03:27:48;;;;;;;20.90;13.52;;;;;;;;;;5054723;28;20353;-55
2021/12/29 03:30:14;;;;;;;20.20;13.48;;;;;;;;;;5055925;28;20095;-58
2021/12/29 03:32:43;;;;;;;19.33;12.77;;;;;;;;;;5048292;28;20041;-52
2021/12/29 03:35:10;;;;;;;20.45;13.60;;;;;;;;;;5058563;28;20043;-55
2021/12/29 03:37:37;;;;;;;21.02;13.35;;;;;;;;;;5050841;28;20037;-53
2021/12/29 03:40:05;;;;;;;20.35;13.75;;;;;;;;;;5052207;28;20136;-54
2021/12/29 03:42:30;;;;;;;25.20;14.65;;;;;;;;;;5057521;28;20107;-56
2021/12/29 03:44:56;;;;;;;27.20;14.68;;;;;;;;;;5054396;28;20044;-55
2021/12/29 03:47:22;;;;;;;24.90;14.68;;;;;;;;;;5059232;28;20162;-54
2021/12/29 03:49:48;;;;;;;22.83;13.98;;;;;;;;;;5054186;28;20033;-54
2021/12/29 03:52:13;;;;;;;23.92;14.65;;;;;;;;;;5056697;28;20045;-53
2021/12/29 03:54:39;;;;;;;20.33;14.25;;;;;;;;;;5057924;28;20140;-55
2021/12/29 03:57:05;;;;;;;18.80;13.60;;;;;;;;;;5051541;28;20087;-53
2021/12/29 03:59:30;;;;;;;20.10;13.32;;;;;;;;;;5058764;28;20036;-53
2021/12/29 04:01:56;;;;;;;22.88;13.63;;;;;;;;;;5054551;28;20037;-54
2021/12/29 04:04:23;;;;;;;21.85;13.52;;;;;;;;;;5053320;28;20045;-54
2021/12/29 04:06:49;;;;;;;19.63;13.15;;;;;;;;;;5058472;28;20056;-54
2021/12/29 04:09:17;;;;;;;16.42;11.98;;;;;;;;;;5051309;28;20037;-54
2021/12/29 04:11:42;;;;;;;20.00;13.10;;;;;;;;;;5059949;28;20033;-56
2021/12/29 04:14:08;;;;;;;23.75;13.98;;;;;;;;;;5054096;28;20086;-55
2021/12/29 04:16:37;;;;;;;22.33;13.75;;;;;;;;;;5053486;28;20461;-55
2021/12/29 04:19:14;;;;;;;23.08;12.23;;;;;;;;;;5054006;28;20051;-55
2021/12/29 04:21:43;;;;;;;21.77;13.00;;;;;;;;;;5050342;28;20135;-53
2021/12/29 04:24:09;;;;;;;22.00;12.57;;;;;;;;;;5055032;28;20038;-56
2021/12/29 04:26:37;;;;;;;22.15;13.15;;;;;;;;;;5052618;28;20043;-54
2021/12/29 04:29:05;;;;;;;25.65;14.38;;;;;;;;;;5058815;28;20040;-53
2021/12/29 04:31:31;;;;;;;23.67;13.57;;;;;;;;;;5056570;28;20053;-53
2021/12/29 04:33:56;;;;;;;27.20;14.85;;;;;;;;;;5052771;28;20079;-56
2021/12/29 04:36:25;;;;;;;25.70;14.48;;;;;;;;;;5060864;28;20093;-55
2021/12/29 04:38:57;;;;;;;22.52;14.38;;;;;;;;;;5052103;28;20132;-55
2021/12/29 04:41:23;;;;;;;25.15;15.60;;;;;;;;;;5059100;28;20119;-57
2021/12/29 04:43:48;;;;;;;29.10;16.27;;;;;;;;;;5054307;28;20056;-52
2021/12/29 04:46:16;;;;;;;26.98;15.45;;;;;;;;;;5053635;28;20133;-57
2021/12/29 04:48:49;;;;;;;26.65;16.58;;;;;;;;;;5057200;28;20041;-51
2021/12/29 04:51:22;;;;;;;29.42;16.85;;;;;;;;;;5052605;28;20518;-57
2021/12/29 04:53:48;;;;;;;27.52;15.43;;;;;;;;;;5061601;28;20037;-52
2021/12/29 04:56:15;;;;;;;24.45;14.93;;;;;;;;;;5053680;28;20060;-56
2021/12/29 04:58:41;;;;;;;29.73;16.23;;;;;;;;;;5055367;28;20381;-54
2021/12/29 05:01:07;;;;;;;27.13;15.68;;;;;;;;;;5056650;28;20411;-56
2021/12/29 05:03:36;;;;;;;27.45;16.60;;;;;;;;;;5049566;28;20036;-56
2021/12/29 05:08:30;;;;;;;30.98;17.00;;;;;;;;;;5053775;28;20041;-54
2021/12/29 05:10:59;;;;;;;32.88;16.75;;;;;;;;;;5056036;28;20114;-51
2021/12/29 05:13:26;;;;;;;30.13;15.98;;;;;;;;;;5056452;28;20041;-50
2021/12/29 05:15:52;;;;;;;32.00;16.52;;;;;;;;;;5051931;28;20049;-48
2021/12/29 05:18:18;;;;;;;30.92;16.77;;;;;;;;;;5054525;28;20041;-49
2021/12/29 05:20:44;;;;;;;30.02;16.23;;;;;;;;;;5051710;28;20037;-48
2021/12/29 05:23:10;;;;;;;25.77;15.35;;;;;;;;;;5054072;28;20477;-50
2021/12/29 05:25:36;;;;;;;25.70;15.90;;;;;;;;;;5056163;28;20095;-50
2021/12/29 05:28:02;;;;;;;26.83;15.65;;;;;;;;;;5056108;28;20037;-48
2021/12/29 05:30:27;;;;;;;23.98;14.95;;;;;;;;;;5057944;28;20692;-45
2021/12/29 05:32:53;;;;;;;21.40;15.13;;;;;;;;;;5054237;28;20147;-47
2021/12/29 05:35:19;;;;;;;23.92;14.18;;;;;;;;;;5052862;28;20575;-48
2021/12/29 05:37:45;;;;;;;26.45;14.88;;;;;;;;;;5054146;28;20122;-48
2021/12/29 05:40:11;;;;;;;31.20;14.93;;;;;;;;;;5049209;28;20037;-46
2021/12/29 05:42:37;;;;;;;23.40;14.35;;;;;;;;;;5057121;28;20524;-45
2021/12/29 05:45:04;;;;;;;22.70;14.60;;;;;;;;;;5050832;28;20048;-49
2021/12/29 05:47:30;;;;;;;22.33;13.35;;;;;;;;;;5053053;28;20106;-47
2021/12/29 05:49:56;;;;;;;21.95;14.02;;;;;;;;;;5055280;28;20036;-47
2021/12/29 05:52:21;;;;;;;27.60;14.73;;;;;;;;;;5049319;28;22600;-43
2021/12/29 05:54:47;;;;;;;26.33;14.65;;;;;;;;;;5058458;28;20068;-48
2021/12/29 05:57:13;;;;;;;23.20;12.80;;;;;;;;;;5051542;28;20538;-47
2021/12/29 05:59:38;;;;;;;24.73;14.65;;;;;;;;;;5053081;28;20118;-48
2021/12/29 06:02:04;;;;;;;23.00;14.95;;;;;;;;;;5055606;28;20909;-48
2021/12/29 06:04:30;;;;;;;26.27;13.77;;;;;;;;;;5048715;28;20068;-44
2021/12/29 06:06:56;;;;;;;24.90;15.52;;;;;;;;;;5055652;28;20038;-46
2021/12/29 06:09:22;;;;;;;25.73;14.40;;;;;;;;;;5051689;28;20048;-46
2021/12/29 06:11:47;;;;;;;25.80;16.60;;;;;;;;;;5054804;28;20069;-49
2021/12/29 06:14:13;;;;;;;27.23;15.60;;;;;;;;;;5055514;28;20098;-46
2021/12/29 06:16:39;;;;;;;28.17;15.32;;;;;;;;;;5048647;28;20068;-45
2021/12/29 06:19:04;;;;;;;22.95;14.02;;;;;;;;;;5058866;28;20087;-47
2021/12/29 06:21:30;;;;;;;23.45;14.93;;;;;;;;;;5051743;28;20045;-48
2021/12/29 06:23:56;;;;;;;28.98;15.13;;;;;;;;;;5055706;28;20084;-46
2021/12/29 06:26:21;;;;;;;25.25;14.80;;;;;;;;;;5055208;28;20048;-45
2021/12/29 06:28:48;;;;;;;23.98;14.52;;;;;;;;;;5049615;28;20405;-45
2021/12/29 06:31:14;;;;;;;26.38;15.40;;;;;;;;;;5059530;28;20123;-46
2021/12/29 06:33:40;;;;;;;24.25;14.02;;;;;;;;;;5050944;28;20037;-46
2021/12/29 06:36:06;;;;;;;27.45;13.13;;;;;;;;;;5055525;28;20508;-50
2021/12/29 06:38:34;;;;;;;26.27;14.88;;;;;;;;;;5054568;28;20050;-46
2021/12/29 06:40:59;;;;;;;25.05;13.25;;;;;;;;;;5050451;28;20051;-49
2021/12/29 06:43:25;;;;;;;24.88;13.93;;;;;;;;;;5058585;28;20068;-45
2021/12/29 06:45:51;;;;;;;26.05;14.15;;;;;;;;;;5050947;28;20679;-46
2021/12/29 06:48:16;;;;;;;26.65;13.88;;;;;;;;;;5053593;28;20091;-48
2021/12/29 06:50:42;;;;;;;26.95;12.93;;;;;;;;;;5053995;28;20032;-49
2021/12/29 06:53:08;;;;;;;30.45;14.55;;;;;;;;;;5054595;28;20068;-44
2021/12/29 06:55:33;;;;;;;23.75;13.68;;;;;;;;;;5055832;28;20404;-46
2021/12/29 06:57:59;;;;;;;21.83;13.60;;;;;;;;;;5051360;28;20048;-45
2021/12/29 07:00:25;;;;;;;29.35;14.75;;;;;;;;;;5052086;28;20139;-46
2021/12/29 07:02:51;;;;;;;27.58;13.57;;;;;;;;;;5052531;28;20037;-44
2021/12/29 07:05:16;;;;;;;27.00;13.88;;;;;;;;;;5048112;28;20092;-47
2021/12/29 07:07:42;;;;;;;24.35;13.13;;;;;;;;;;5056345;28;20094;-44
2021/12/29 07:10:08;;;;;;;25.58;14.07;;;;;;;;;;5053866;28;20044;-46
2021/12/29 07:12:34;;;;;;;22.60;13.18;;;;;;;;;;5052560;28;20041;-47
2021/12/29 07:15:00;;;;;;;22.75;13.55;;;;;;;;;;5053295;28;20072;-46
2021/12/29 07:17:25;;;;;;;20.63;12.57;;;;;;;;;;5055650;28;20054;-48
2021/12/29 07:19:51;;;;;;;24.42;14.43;;;;;;;;;;5056069;28;20037;-42
2021/12/29 07:22:17;;;;;;;20.58;13.57;;;;;;;;;;5058977;28;20102;-46
2021/12/29 07:24:42;;;;;;;23.08;12.30;;;;;;;;;;5056125;28;20229;-49
2021/12/29 07:27:08;;;;;;;23.67;12.40;;;;;;;;;;5055136;28;20110;-47
2021/12/29 07:29:34;;;;;;;19.05;12.57;;;;;;;;;;5055779;28;20032;-48
2021/12/29 07:32:02;;;;;;;21.73;12.57;;;;;;;;;;5055979;28;20052;-46
2021/12/29 07:34:28;;;;;;;19.70;12.43;;;;;;;;;;5053353;28;20041;-48
2021/12/29 07:36:54;;;;;;;24.02;12.88;;;;;;;;;;5052975;28;20132;-45
2021/12/29 07:39:20;;;;;;;17.15;11.18;;;;;;;;;;5055034;28;20143;-47
2021/12/29 07:41:47;;;;;;;20.25;11.55;;;;;;;;;;5052136;28;20123;-46
2021/12/29 07:44:14;;;;;;;25.67;11.93;;;;;;;;;;5054646;28;20040;-43
2021/12/29 07:46:42;;;;;;;25.60;12.18;;;;;;;;;;5052606;28;20060;-45
2021/12/29 07:49:08;;;;;;;21.33;12.45;;;;;;;;;;5057409;28;20029;-51
2021/12/29 07:51:34;;;;;;;19.65;11.18;;;;;;;;;;5056304;28;20103;-43
2021/12/29 07:54:00;;;;;;;18.23;10.90;;;;;;;;;;5053121;28;20040;-47
2021/12/29 07:56:25;;;;;;;21.60;11.90;;;;;;;;;;5057034;28;20047;-50
2021/12/29 07:58:51;;;;;;;22.15;11.68;;;;;;;;;;5052774;28;20465;-46
2021/12/29 08:01:17;;;;;;;18.85;11.05;;;;;;;;;;5059051;28;20063;-44
2021/12/29 08:03:42;;;;;;;18.38;11.30;;;;;;;;;;5054682;28;20091;-49
2021/12/29 08:06:08;;;;;;;23.70;12.05;;;;;;;;;;5053575;28;20155;-50
2021/12/29 08:08:34;;;;;;;21.58;12.32;;;;;;;;;;5058683;28;20499;-47
2021/12/29 08:11:00;;;;;;;19.98;11.45;;;;;;;;;;5052032;28;20064;-44
2021/12/29 08:13:25;;;;;;;19.88;11.20;;;;;;;;;;5063134;28;20044;-46
2021/12/29 08:15:51;;;;;;;18.38;10.82;;;;;;;;;;5055367;28;20111;-50
2021/12/29 08:18:17;;;;;;;25.55;11.57;;;;;;;;;;5054145;28;20486;-45
2021/12/29 08:20:43;;;;;;;21.02;10.73;;;;;;;;;;5059056;28;20036;-49
2021/12/29 08:23:10;;;;;;;22.60;11.38;;;;;;;;;;5054778;28;20379;-45
2021/12/29 08:25:37;;;;;;;22.25;12.15;;;;;;;;;;5056747;28;20028;-45
2021/12/29 08:28:03;;;;;;;23.58;11.88;;;;;;;;;;5055070;28;20040;-48
2021/12/29 08:30:29;;;;;;;22.38;12.07;;;;;;;;;;5052185;28;20039;-50
2021/12/29 08:32:55;;;;;;;21.38;12.32;;;;;;;;;;5058889;28;20037;-45
2021/12/29 08:35:21;;;;;;;24.05;11.98;;;;;;;;;;5051849;28;20605;-48
2021/12/29 08:37:47;;;;;;;23.85;12.60;;;;;;;;;;5057621;28;20040;-47
2021/12/29 08:40:14;;;;;;;27.42;12.75;;;;;;;;;;5052288;28;20044;-44
2021/12/29 08:42:40;;;;;;;22.05;11.55;;;;;;;;;;5052303;28;20033;-45
2021/12/29 08:45:09;;;;;;;22.70;11.50;;;;;;;;;;5061988;28;20834;-47
2021/12/29 08:47:35;;;;;;;20.42;13.30;;;;;;;;;;5050390;28;20029;-46
2021/12/29 08:50:01;;;;;;;22.30;13.20;;;;;;;;;;5058605;28;20425;-45
2021/12/29 08:52:26;;;;;;;20.73;11.15;;;;;;;;;;5054863;28;20060;-47
2021/12/29 08:54:52;;;;;;;21.65;11.73;;;;;;;;;;5051603;28;20107;-45
2021/12/29 08:57:18;;;;;;;28.55;12.25;;;;;;;;;;5059151;28;20041;-47
2021/12/29 08:59:44;;;;;;;24.15;12.85;;;;;;;;;;5051328;28;20515;-48
2021/12/29 09:02:09;;;;;;;20.92;11.52;;;;;;;;;;5055695;28;20134;-46
2021/12/29 09:04:35;;;;;;;20.27;11.38;;;;;;;;;;5053665;28;20033;-48
2021/12/29 09:07:01;;;;;;;21.65;11.98;;;;;;;;;;5052044;28;20151;-48
2021/12/29 09:09:26;;;;;;;23.48;12.15;;;;;;;;;;5057697;28;20102;-47
2021/12/29 09:11:53;;;;;;;21.42;11.80;;;;;;;;;;5051068;28;20485;-47
2021/12/29 09:14:19;;;;;;;22.98;12.50;;;;;;;;;;5052153;28;20691;-49
2021/12/29 09:16:45;;;;;;;23.27;11.27;;;;;;;;;;5052471;28;20048;-48
2021/12/29 09:19:13;;;;;;;25.00;10.95;;;;;;;;;;5052036;28;20041;-47
2021/12/29 09:21:39;;;;;;;21.23;11.30;;;;;;;;;;5057280;28;20068;-48
2021/12/29 09:24:06;;;;;;;20.83;11.65;;;;;;;;;;5051001;28;20500;-48
2021/12/29 09:26:32;;;;;;;22.73;11.57;;;;;;;;;;5058076;28;20044;-47
2021/12/29 09:28:57;;;;;;;21.67;12.05;;;;;;;;;;5053507;28;20037;-48
2021/12/29 09:31:24;;;;;;;19.98;11.68;;;;;;;;;;5053263;28;20040;-44
2021/12/29 09:33:50;;;;;;;22.30;11.55;;;;;;;;;;5051805;28;20041;-45
2021/12/29 09:36:17;;;;;;;27.58;12.07;;;;;;;;;;5051487;28;20124;-47
2021/12/29 09:38:44;;;;;;;25.40;12.82;;;;;;;;;;5057870;28;20048;-45
2021/12/29 09:41:12;;;;;;;21.63;11.70;;;;;;;;;;5053364;28;20082;-48
2021/12/29 09:43:38;;;;;;;19.17;11.05;;;;;;;;;;5053385;28;20140;-46
2021/12/29 09:46:06;;;;;;;22.02;12.02;;;;;;;;;;5056643;28;20040;-46
2021/12/29 09:48:32;;;;;;;20.27;11.27;;;;;;;;;;5049782;28;20403;-50
2021/12/29 09:50:58;;;;;;;22.33;12.38;;;;;;;;;;5060016;28;20488;-45
2021/12/29 09:53:24;;;;;;;24.02;11.98;;;;;;;;;;5052884;28;20051;-46
2021/12/29 09:55:50;;;;;;;22.65;11.65;;;;;;;;;;5052397;28;20043;-45
2021/12/29 09:58:17;;;;;;;22.85;13.07;;;;;;;;;;5055860;28;20056;-47
2021/12/29 10:00:46;;;;;;;25.48;12.18;;;;;;;;;;5049807;28;20051;-45
2021/12/29 10:03:14;;;;;;;20.63;11.68;;;;;;;;;;5054425;28;20056;-45
2021/12/29 10:05:41;;;;;;;27.80;11.95;;;;;;;;;;5051743;28;20132;-46
2021/12/29 10:08:10;;;;;;;21.75;12.68;;;;;;;;;;5052940;28;20040;-47
2021/12/29 10:10:40;;;;;;;19.90;11.70;;;;;;;;;;5053675;28;20043;-43
2021/12/29 10:13:08;;;;;;;24.02;12.70;;;;;;;;;;5051335;28;20040;-49
2021/12/29 10:15:39;;;;;;;26.02;14.05;;;;;;;;;;5056050;28;20102;-42
2021/12/29 10:18:11;;;;;;;25.35;13.32;;;;;;;;;;5051518;28;20037;-43
2021/12/29 10:20:51;;;;;;;19.00;11.57;;;;;;;;;;5055137;28;20032;-43
2021/12/29 10:23:36;;;;;;;22.77;13.55;;;;;;;;;;5053136;28;20037;-48
2021/12/29 10:26:09;;;;;;;24.45;12.18;;;;;;;;;;5050088;28;20819;-47
2021/12/29 10:28:37;;;;;;;26.63;13.75;;;;;;;;;;5054663;28;20056;-47
2021/12/29 10:31:07;;;;;;;23.38;13.48;;;;;;;;;;5049796;28;20037;-46
2021/12/29 10:33:39;;;;;;;25.35;13.88;;;;;;;;;;5053137;28;20109;-42
2021/12/29 10:36:15;;;;;;;24.23;13.07;;;;;;;;;;5051331;28;20516;-47
2021/12/29 10:38:43;;;;;;;26.83;13.55;;;;;;;;;;5052743;28;20093;-45
2021/12/29 10:41:09;;;;;;;22.42;11.95;;;;;;;;;;5053014;28;20033;-47
2021/12/29 10:43:36;;;;;;;22.70;12.80;;;;;;;;;;5047006;28;20124;-45
2021/12/29 10:46:02;;;;;;;22.70;13.25;;;;;;;;;;5057991;28;20043;-43
2021/12/29 10:48:30;;;;;;;30.02;13.65;;;;;;;;;;5050426;28;20373;-46
2021/12/29 10:50:59;;;;;;;28.95;13.52;;;;;;;;;;5056471;28;20123;-50
2021/12/29 10:53:25;;;;;;;27.35;14.27;;;;;;;;;;5057815;28;20036;-45
2021/12/29 10:55:50;;;;;;;27.48;13.93;;;;;;;;;;5053365;28;20098;-45
2021/12/29 10:58:20;;;;;;;28.33;14.75;;;;;;;;;;5061677;28;20037;-48
2021/12/29 11:00:57;;;;;;;28.05;15.18;;;;;;;;;;5054050;28;20051;-46
2021/12/29 11:03:24;;;;;;;27.15;14.27;;;;;;;;;;5060088;28;20087;-47
2021/12/29 11:05:58;;;;;;;26.17;14.15;;;;;;;;;;5055687;28;20044;-45
2021/12/29 11:08:25;;;;;;;25.65;14.43;;;;;;;;;;5054145;28;20063;-45
2021/12/29 11:10:53;;;;;;;25.42;14.57;;;;;;;;;;5058610;28;20128;-47
2021/12/29 11:13:30;;;;;;;27.13;13.65;;;;;;;;;;5051605;28;20041;-46
2021/12/29 11:15:56;;;;;;;28.55;15.10;;;;;;;;;;5061871;28;20478;-48
2021/12/29 11:18:22;;;;;;;27.75;14.38;;;;;;;;;;5055170;28;20042;-44
2021/12/29 11:20:57;;;;;;;22.67;13.88;;;;;;;;;;5057920;28;20069;-49
2021/12/29 11:23:24;;;;;;;23.43;13.80;;;;;;;;;;5058386;28;20115;-44
2021/12/29 11:25:51;;;;;;;25.02;14.40;;;;;;;;;;5053201;28;20357;-47
2021/12/29 11:28:25;;;;;;;24.38;14.40;;;;;;;;;;5062211;28;20103;-50
2021/12/29 11:30:52;;;;;;;23.15;13.13;;;;;;;;;;5054121;28;20041;-44
2021/12/29 11:33:19;;;;;;;26.80;14.98;;;;;;;;;;5057400;28;20051;-44
2021/12/29 11:35:53;;;;;;;28.60;14.88;;;;;;;;;;5056708;28;20045;-46
2021/12/29 11:38:21;;;;;;;26.38;15.38;;;;;;;;;;5050775;28;20865;-50
2021/12/29 11:40:49;;;;;;;27.92;15.07;;;;;;;;;;5057361;28;20037;-47
2021/12/29 11:43:16;;;;;;;28.25;15.55;;;;;;;;;;5052374;28;20257;-47
2021/12/29 11:45:43;;;;;;;25.85;15.20;;;;;;;;;;5058333;28;20037;-46
2021/12/29 11:48:10;;;;;;;30.52;15.00;;;;;;;;;;5055929;28;20788;-44
2021/12/29 11:50:40;;;;;;;23.13;13.68;;;;;;;;;;5053146;28;20132;-43
2021/12/29 11:53:18;;;;;;;27.02;14.65;;;;;;;;;;5059807;28;20522;-48
2021/12/29 11:55:47;;;;;;;24.58;14.50;;;;;;;;;;5050949;28;20443;-52
2021/12/29 11:58:14;;;;;;;26.40;15.85;;;;;;;;;;5058866;28;20954;-47
2021/12/29 12:00:40;;;;;;;22.38;13.55;;;;;;;;;;5054411;28;20037;-47
2021/12/29 12:03:13;;;;;;;23.67;14.65;;;;;;;;;;5051989;28;20041;-47
2021/12/29 12:05:48;;;;;;;24.67;13.45;;;;;;;;;;5058044;28;20033;-49
2021/12/29 12:08:21;;;;;;;25.50;15.65;;;;;;;;;;5050978;28;20068;-46
2021/12/29 12:10:47;;;;;;;32.15;14.75;;;;;;;;;;5060233;28;20032;-49
2021/12/29 12:13:28;;;;;;;28.90;15.57;;;;;;;;;;5052974;28;20041;-45
2021/12/29 12:16:14;;;;;;;23.95;14.93;;;;;;;;;;5056925;28;20044;-50
2021/12/29 12:18:46;;;;;;;27.30;15.70;;;;;;;;;;5055415;28;20404;-45
2021/12/29 12:21:33;;;;;;;29.95;15.90;;;;;;;;;;5053296;28;20040;-46
2021/12/29 12:24:16;;;;;;;30.00;15.20;;;;;;;;;;5057354;28;20036;-46
2021/12/29 12:27:11;;;;;;;27.33;15.23;;;;;;;;;;5050522;28;20044;-47
2021/12/29 12:29:41;;;;;;;28.80;14.52;;;;;;;;;;5055209;28;20058;-49
2021/12/29 12:32:19;;;;;;;32.90;15.90;;;;;;;;;;5051704;28;20040;-45
2021/12/29 12:34:54;;;;;;;30.30;16.13;;;;;;;;;;5059789;28;20128;-47
2021/12/29 12:37:51;;;;;;;29.88;17.30;;;;;;;;;;5052146;28;20045;-48
2021/12/29 12:40:29;;;;;;;30.80;18.13;;;;;;;;;;5044585;28;20041;-46
2021/12/29 12:43:21;;;;;;;35.00;17.65;;;;;;;;;;5053705;28;20061;-44
2021/12/29 12:45:50;;;;;;;33.83;18.58;;;;;;;;;;5050824;28;20045;-48
2021/12/29 12:48:23;;;;;;;36.05;16.60;;;;;;;;;;5056903;28;20037;-43
2021/12/29 12:50:49;;;;;;;36.92;18.50;;;;;;;;;;5050495;28;20037;-47
2021/12/29 12:53:17;;;;;;;37.15;19.45;;;;;;;;;;5060435;28;20055;-44
2021/12/29 12:55:54;;;;;;;35.55;19.58;;;;;;;;;;5049345;28;20047;-48
2021/12/29 12:58:20;;;;;;;41.67;20.02;;;;;;;;;;5058524;28;20060;-45
2021/12/29 13:01:26;;;;;;;33.67;19.33;;;;;;;;;;5055122;28;20039;-47
2021/12/29 13:03:53;;;;;;;38.80;19.23;;;;;;;;;;5056459;28;20065;-47
2021/12/29 13:06:23;;;;;;;41.60;20.92;;;;;;;;;;5057363;28;20043;-46
2021/12/29 13:08:52;;;;;;;34.75;18.63;;;;;;;;;;5051103;28;20124;-47
2021/12/29 13:11:22;;;;;;;34.15;19.10;;;;;;;;;;5057681;28;20040;-46
2021/12/29 13:13:50;;;;;;;44.08;19.55;;;;;;;;;;5051893;28;20040;-44
2021/12/29 13:16:21;;;;;;;33.33;18.23;;;;;;;;;;5054693;28;20926;-45
2021/12/29 13:18:49;;;;;;;33.67;18.08;;;;;;;;;;5055192;28;20056;-44
2021/12/29 13:21:26;;;;;;;37.30;18.13;;;;;;;;;;5050270;28;20531;-47
2021/12/29 13:23:58;;;;;;;34.53;17.60;;;;;;;;;;5058740;28;20523;-44
2021/12/29 13:26:23;;;;;;;32.03;17.17;;;;;;;;;;5051633;28;20044;-44
2021/12/29 13:28:50;;;;;;;30.13;16.60;;;;;;;;;;5057222;28;20765;-50
2021/12/29 13:31:18;;;;;;;30.75;17.08;;;;;;;;;;5054320;28;20522;-48
2021/12/29 13:33:49;;;;;;;29.42;16.65;;;;;;;;;;5049514;28;20041;-50
2021/12/29 13:36:16;;;;;;;35.58;17.95;;;;;;;;;;5058109;28;20044;-46
2021/12/29 13:38:42;;;;;;;30.95;17.48;;;;;;;;;;5050415;28;20045;-44
2021/12/29 13:41:17;;;;;;;32.65;17.45;;;;;;;;;;5054378;28;20037;-48
2021/12/29 13:43:45;;;;;;;29.20;17.30;;;;;;;;;;5052943;28;20036;-49
2021/12/29 13:46:17;;;;;;;29.00;16.98;;;;;;;;;;5051334;28;20032;-44
2021/12/29 13:48:45;;;;;;;30.98;17.63;;;;;;;;;;5056114;28;20080;-49
2021/12/29 13:51:23;;;;;;;31.17;19.48;;;;;;;;;;5049607;28;20655;-46
2021/12/29 13:53:55;;;;;;;33.28;18.20;;;;;;;;;;5058245;28;20672;-45
2021/12/29 13:56:24;;;;;;;31.73;17.58;;;;;;;;;;5051362;28;20051;-44
2021/12/29 13:59:06;;;;;;;32.65;17.98;;;;;;;;;;5054115;28;20044;-46
2021/12/29 14:01:33;;;;;;;32.28;18.25;;;;;;;;;;5053790;28;20048;-47
2021/12/29 14:03:59;;;;;;;32.78;19.30;;;;;;;;;;5051078;28;20032;-45
2021/12/29 14:06:26;;;;;;;32.85;18.33;;;;;;;;;;5057865;28;20463;-46
2021/12/29 14:08:52;;;;;;;33.45;18.60;;;;;;;;;;5046609;28;20045;-45
2021/12/29 14:11:17;;;;;;;30.88;18.98;;;;;;;;;;5053144;28;20051;-44
2021/12/29 14:13:49;;;;;;;30.75;18.25;;;;;;;;;;5052658;28;20128;-45
2021/12/29 14:16:18;;;;;;;27.25;18.30;;;;;;;;;;5052437;28;20050;-45
2021/12/29 14:18:54;;;;;;;32.15;18.20;;;;;;;;;;5056611;28;20048;-49
2021/12/29 14:21:30;;;;;;;30.75;18.08;;;;;;;;;;5050212;28;20117;-50
2021/12/29 14:24:00;;;;;;;35.80;19.60;;;;;;;;;;5059468;28;20058;-48
2021/12/29 14:26:28;;;;;;;32.92;18.40;;;;;;;;;;5051706;28;20112;-49